Terminal Aerodrome Forecast
Issued by NWS Raleigh/Durham, NC

Home | Current Version | Previous Version | Text Only | Print | Product List | Glossary On
Versions: 1 2 3 4 5 6 7 8 9 10 11 12 13 14 15 16
000
FTUS42 KRAH 231129
TAFFAY
TAF
KFAY 231129Z 2312/2412 21007KT P6SM SCT250
     FM231900 23007KT P6SM SCT060
     FM240100 18006KT P6SM SCT250
      TEMPO 2410/2412 4SM BR=

USA.gov is the U.S. government's official web portal to all federal, state and local government web resources and services.